sensor_id;sensor_type;location;lat;lon;timestamp;temperature;humidity
10662;DHT22;5379;51.034;7.006;2023-03-12T00:02:04;5.00;97.10
10662;DHT22;5379;51.034;7.006;2023-03-12T00:04:32;5.10;97.10
10662;DHT22;5379;51.034;7.006;2023-03-12T00:07:01;5.10;97.40
10662;DHT22;5379;51.034;7.006;2023-03-12T00:09:34;5.20;97.50
10662;DHT22;5379;51.034;7.006;2023-03-12T00:12:01;5.10;97.10
10662;DHT22;5379;51.034;7.006;2023-03-12T00:14:28;5.00;97.20
10662;DHT22;5379;51.034;7.006;2023-03-12T00:16:55;5.10;97.50
10662;DHT22;5379;51.034;7.006;2023-03-12T00:19:24;5.10;97.10
10662;DHT22;5379;51.034;7.006;2023-03-12T00:21:51;5.00;97.20
10662;DHT22;5379;51.034;7.006;2023-03-12T00:24:19;5.00;97.10
10662;DHT22;5379;51.034;7.006;2023-03-12T00:26:46;5.00;97.10
10662;DHT22;5379;51.034;7.006;2023-03-12T00:29:13;5.10;97.60
10662;DHT22;5379;51.034;7.006;2023-03-12T00:31:40;5.30;97.60
10662;DHT22;5379;51.034;7.006;2023-03-12T00:34:08;5.30;96.70
10662;DHT22;5379;51.034;7.006;2023-03-12T00:36:37;5.30;96.50
10662;DHT22;5379;51.034;7.006;2023-03-12T00:39:11;5.50;97.00
10662;DHT22;5379;51.034;7.006;2023-03-12T00:41:38;5.60;96.60
10662;DHT22;5379;51.034;7.006;2023-03-12T00:44:05;5.70;96.90
10662;DHT22;5379;51.034;7.006;2023-03-12T00:46:32;5.70;96.30
10662;DHT22;5379;51.034;7.006;2023-03-12T00:48:59;5.70;95.80
10662;DHT22;5379;51.034;7.006;2023-03-12T00:51:26;5.70;96.50
10662;DHT22;5379;51.034;7.006;2023-03-12T00:53:54;5.70;96.10
10662;DHT22;5379;51.034;7.006;2023-03-12T00:56:21;5.70;95.90
10662;DHT22;5379;51.034;7.006;2023-03-12T00:58:48;5.70;95.60
10662;DHT22;5379;51.034;7.006;2023-03-12T05:31:14;6.20;98.40
10662;DHT22;5379;51.034;7.006;2023-03-12T05:33:42;6.10;99.00
10662;DHT22;5379;51.034;7.006;2023-03-12T05:36:09;6.00;99.00
10662;DHT22;5379;51.034;7.006;2023-03-12T05:38:37;6.10;99.60
10662;DHT22;5379;51.034;7.006;2023-03-12T05:41:04;6.00;99.70
10662;DHT22;5379;51.034;7.006;2023-03-12T05:43:32;6.10;99.90
10662;DHT22;5379;51.034;7.006;2023-03-12T05:46:00;6.10;99.90
10662;DHT22;5379;51.034;7.006;2023-03-12T05:48:30;6.20;99.90
10662;DHT22;5379;51.034;7.006;2023-03-12T05:50:57;6.10;99.90
10662;DHT22;5379;51.034;7.006;2023-03-12T05:53:24;6.10;99.90
10662;DHT22;5379;51.034;7.006;2023-03-12T05:55:51;6.10;99.90
10662;DHT22;5379;51.034;7.006;2023-03-12T05:58:18;6.10;99.90
10662;DHT22;5379;51.034;7.006;2023-03-12T06:00:45;6.00;99.90
10662;DHT22;5379;51.034;7.006;2023-03-12T06:03:12;6.00;99.90
10662;DHT22;5379;51.034;7.006;2023-03-12T06:05:40;5.90;99.90
10662;DHT22;5379;51.034;7.006;2023-03-12T06:08:07;5.90;99.90
10662;DHT22;5379;51.034;7.006;2023-03-12T06:10:36;5.80;99.90
10662;DHT22;5379;51.034;7.006;2023-03-12T06:13:04;5.80;99.90
10662;DHT22;5379;51.034;7.006;2023-03-12T06:15:31;5.80;99.90
10662;DHT22;5379;51.034;7.006;2023-03-12T06:17:58;5.70;99.90
10662;DHT22;5379;51.034;7.006;2023-03-12T06:20:25;5.80;99.90
10662;DHT22;5379;51.034;7.006;2023-03-12T06:22:53;5.80;99.90
10662;DHT22;5379;51.034;7.006;2023-03-12T06:25:20;5.80;99.90
10662;DHT22;5379;51.034;7.006;2023-03-12T06:27:47;5.90;99.90
10662;DHT22;5379;51.034;7.006;2023-03-12T06:30:16;5.90;99.90
10662;DHT22;5379;51.034;7.006;2023-03-12T06:32:43;5.70;99.90
10662;DHT22;5379;51.034;7.006;2023-03-12T06:35:10;5.80;99.90
10662;DHT22;5379;51.034;7.006;2023-03-12T06:37:37;5.90;99.90
10662;DHT22;5379;51.034;7.006;2023-03-12T06:40:06;5.80;99.90
10662;DHT22;5379;51.034;7.006;2023-03-12T06:42:35;5.80;99.90
10662;DHT22;5379;51.034;7.006;2023-03-12T06:45:02;6.00;99.90
10662;DHT22;5379;51.034;7.006;2023-03-12T06:47:29;6.10;99.90
10662;DHT22;5379;51.034;7.006;2023-03-12T06:49:56;6.20;99.90
10662;DHT22;5379;51.034;7.006;2023-03-12T06:52:23;6.10;99.90
10662;DHT22;5379;51.034;7.006;2023-03-12T06:54:51;6.00;99.90
10662;DHT22;5379;51.034;7.006;2023-03-12T06:57:19;6.00;99.90
10662;DHT22;5379;51.034;7.006;2023-03-12T06:59:46;5.90;99.90
10662;DHT22;5379;51.034;7.006;2023-03-12T07:02:13;6.10;99.90
10662;DHT22;5379;51.034;7.006;2023-03-12T07:04:40;6.10;99.90
10662;DHT22;5379;51.034;7.006;2023-03-12T07:07:08;6.30;99.90
10662;DHT22;5379;51.034;7.006;2023-03-12T07:09:36;6.40;99.90
10662;DHT22;5379;51.034;7.006;2023-03-12T07:12:03;6.40;99.90
10662;DHT22;5379;51.034;7.006;2023-03-12T07:14:31;6.40;99.90
10662;DHT22;5379;51.034;7.006;2023-03-12T07:16:58;6.30;99.90
10662;DHT22;5379;51.034;7.006;2023-03-12T07:19:26;6.20;99.90
10662;DHT22;5379;51.034;7.006;2023-03-12T07:21:54;6.20;99.90
10662;DHT22;5379;51.034;7.006;2023-03-12T07:24:21;6.20;99.90
10662;DHT22;5379;51.034;7.006;2023-03-12T07:26:48;6.30;99.90
10662;DHT22;5379;51.034;7.006;2023-03-12T07:29:15;6.40;99.90
10662;DHT22;5379;51.034;7.006;2023-03-12T07:31:43;6.40;99.90
10662;DHT22;5379;51.034;7.006;2023-03-12T07:34:10;6.40;99.90
10662;DHT22;5379;51.034;7.006;2023-03-12T07:36:38;6.50;99.90
10662;DHT22;5379;51.034;7.006;2023-03-12T07:39:05;6.50;99.90
10662;DHT22;5379;51.034;7.006;2023-03-12T07:41:32;6.60;99.90
10662;DHT22;5379;51.034;7.006;2023-03-12T07:44:01;6.60;99.90
10662;DHT22;5379;51.034;7.006;2023-03-12T07:46:28;6.50;99.90
10662;DHT22;5379;51.034;7.006;2023-03-12T07:48:57;6.40;99.90
10662;DHT22;5379;51.034;7.006;2023-03-12T07:51:24;6.50;99.90
10662;DHT22;5379;51.034;7.006;2023-03-12T07:53:51;6.60;99.90
10662;DHT22;5379;51.034;7.006;2023-03-12T07:56:18;6.70;99.90
10662;DHT22;5379;51.034;7.006;2023-03-12T07:58:44;6.80;99.90
10662;DHT22;5379;51.034;7.006;2023-03-12T08:01:11;6.70;99.90
10662;DHT22;5379;51.034;7.006;2023-03-12T08:03:38;6.70;99.90
10662;DHT22;5379;51.034;7.006;2023-03-12T08:06:07;6.90;99.90
10662;DHT22;5379;51.034;7.006;2023-03-12T08:08:34;6.90;99.90
10662;DHT22;5379;51.034;7.006;2023-03-12T08:11:03;6.90;99.90
10662;DHT22;5379;51.034;7.006;2023-03-12T08:13:30;6.90;99.90
10662;DHT22;5379;51.034;7.006;2023-03-12T08:15:58;6.90;99.90
10662;DHT22;5379;51.034;7.006;2023-03-12T08:18:25;6.90;99.90
10662;DHT22;5379;51.034;7.006;2023-03-12T08:20:53;6.80;99.90
10662;DHT22;5379;51.034;7.006;2023-03-12T08:23:22;6.70;99.90
10662;DHT22;5379;51.034;7.006;2023-03-12T08:25:49;6.80;99.90
10662;DHT22;5379;51.034;7.006;2023-03-12T08:28:17;6.80;99.90
10662;DHT22;5379;51.034;7.006;2023-03-12T08:30:45;6.90;99.90
10662;DHT22;5379;51.034;7.006;2023-03-12T08:33:13;6.90;99.90
10662;DHT22;5379;51.034;7.006;2023-03-12T08:35:40;7.00;99.90
10662;DHT22;5379;51.034;7.006;2023-03-12T08:38:07;7.00;99.90
10662;DHT22;5379;51.034;7.006;2023-03-12T08:40:35;7.10;99.90
10662;DHT22;5379;51.034;7.006;2023-03-12T08:43:03;7.10;99.90
10662;DHT22;5379;51.034;7.006;2023-03-12T08:45:32;7.20;99.90
10662;DHT22;5379;51.034;7.006;2023-03-12T08:48:00;7.10;99.90
10662;DHT22;5379;51.034;7.006;2023-03-12T08:50:27;7.10;99.90
10662;DHT22;5379;51.034;7.006;2023-03-12T08:52:56;7.00;99.90
10662;DHT22;5379;51.034;7.006;2023-03-12T08:55:23;7.10;99.90
10662;DHT22;5379;51.034;7.006;2023-03-12T08:57:53;7.10;99.90
10662;DHT22;5379;51.034;7.006;2023-03-12T09:00:21;7.10;99.90
10662;DHT22;5379;51.034;7.006;2023-03-12T09:02:48;7.10;99.90
10662;DHT22;5379;51.034;7.006;2023-03-12T09:05:17;7.20;99.90
10662;DHT22;5379;51.034;7.006;2023-03-12T09:07:44;7.30;99.90
10662;DHT22;5379;51.034;7.006;2023-03-12T09:10:11;7.20;99.90
10662;DHT22;5379;51.034;7.006;2023-03-12T09:12:38;7.20;99.90
10662;DHT22;5379;51.034;7.006;2023-03-12T09:15:07;7.40;99.90
10662;DHT22;5379;51.034;7.006;2023-03-12T09:17:35;7.40;99.90
10662;DHT22;5379;51.034;7.006;2023-03-12T09:20:02;7.40;99.90
10662;DHT22;5379;51.034;7.006;2023-03-12T09:22:33;7.40;99.90
10662;DHT22;5379;51.034;7.006;2023-03-12T09:25:01;7.40;99.90
10662;DHT22;5379;51.034;7.006;2023-03-12T09:27:29;7.50;99.90
10662;DHT22;5379;51.034;7.006;2023-03-12T09:29:56;7.50;99.90
10662;DHT22;5379;51.034;7.006;2023-03-12T09:32:24;7.50;99.90
10662;DHT22;5379;51.034;7.006;2023-03-12T09:34:52;7.50;99.90
10662;DHT22;5379;51.034;7.006;2023-03-12T09:37:19;7.50;99.90
10662;DHT22;5379;51.034;7.006;2023-03-12T09:39:48;7.50;99.90
10662;DHT22;5379;51.034;7.006;2023-03-12T09:42:21;7.50;99.90
10662;DHT22;5379;51.034;7.006;2023-03-12T09:44:49;7.50;99.90
10662;DHT22;5379;51.034;7.006;2023-03-12T09:47:26;7.50;99.90
10662;DHT22;5379;51.034;7.006;2023-03-12T09:49:58;7.50;99.90
10662;DHT22;5379;51.034;7.006;2023-03-12T09:52:32;7.70;99.90
10662;DHT22;5379;51.034;7.006;2023-03-12T09:55:04;7.70;99.90
10662;DHT22;5379;51.034;7.006;2023-03-12T09:57:32;7.70;99.90
10662;DHT22;5379;51.034;7.006;2023-03-12T10:00:00;7.60;99.90
10662;DHT22;5379;51.034;7.006;2023-03-12T10:02:52;7.60;99.90
10662;DHT22;5379;51.034;7.006;2023-03-12T10:05:29;7.70;99.90
10662;DHT22;5379;51.034;7.006;2023-03-12T10:08:03;7.60;99.90
10662;DHT22;5379;51.034;7.006;2023-03-12T10:10:40;7.60;99.90
10662;DHT22;5379;51.034;7.006;2023-03-12T10:13:29;7.70;99.90
10662;DHT22;5379;51.034;7.006;2023-03-12T10:16:07;7.80;99.90
10662;DHT22;5379;51.034;7.006;2023-03-12T10:18:51;7.90;99.90
10662;DHT22;5379;51.034;7.006;2023-03-12T10:21:25;8.10;99.90
10662;DHT22;5379;51.034;7.006;2023-03-12T10:24:03;8.10;99.90
10662;DHT22;5379;51.034;7.006;2023-03-12T10:26:37;8.00;99.90
10662;DHT22;5379;51.034;7.006;2023-03-12T10:29:10;8.10;99.90
10662;DHT22;5379;51.034;7.006;2023-03-12T10:31:51;8.10;99.90
10662;DHT22;5379;51.034;7.006;2023-03-12T10:34:27;8.10;99.90
10662;DHT22;5379;51.034;7.006;2023-03-12T10:36:58;8.10;99.90
10662;DHT22;5379;51.034;7.006;2023-03-12T10:39:25;8.20;99.90
10662;DHT22;5379;51.034;7.006;2023-03-12T10:41:55;8.20;99.90
10662;DHT22;5379;51.034;7.006;2023-03-12T10:44:23;8.10;99.90
10662;DHT22;5379;51.034;7.006;2023-03-12T10:46:58;8.20;99.90
10662;DHT22;5379;51.034;7.006;2023-03-12T10:49:30;8.10;99.90
10662;DHT22;5379;51.034;7.006;2023-03-12T10:51:59;8.20;99.90
10662;DHT22;5379;51.034;7.006;2023-03-12T10:54:29;8.30;99.90
10662;DHT22;5379;51.034;7.006;2023-03-12T10:56:57;8.40;99.90
10662;DHT22;5379;51.034;7.006;2023-03-12T10:59:27;8.50;99.90
10662;DHT22;5379;51.034;7.006;2023-03-12T11:01:55;8.50;99.90
10662;DHT22;5379;51.034;7.006;2023-03-12T11:04:24;8.50;99.90
10662;DHT22;5379;51.034;7.006;2023-03-12T11:07:06;8.40;99.90
10662;DHT22;5379;51.034;7.006;2023-03-12T11:09:41;8.50;99.90
10662;DHT22;5379;51.034;7.006;2023-03-12T11:12:22;8.60;99.90
10662;DHT22;5379;51.034;7.006;2023-03-12T11:14:50;8.70;99.90
10662;DHT22;5379;51.034;7.006;2023-03-12T11:17:22;8.70;99.90
10662;DHT22;5379;51.034;7.006;2023-03-12T11:19:49;8.80;99.90
10662;DHT22;5379;51.034;7.006;2023-03-12T11:22:29;8.80;99.90
10662;DHT22;5379;51.034;7.006;2023-03-12T11:24:57;8.80;99.90
10662;DHT22;5379;51.034;7.006;2023-03-12T11:27:33;8.80;99.90
10662;DHT22;5379;51.034;7.006;2023-03-12T11:30:02;8.80;99.90
10662;DHT22;5379;51.034;7.006;2023-03-12T11:32:32;8.90;99.90
10662;DHT22;5379;51.034;7.006;2023-03-12T11:35:00;9.00;99.90
10662;DHT22;5379;51.034;7.006;2023-03-12T11:37:38;9.10;99.90
10662;DHT22;5379;51.034;7.006;2023-03-12T11:40:20;9.20;99.90
10662;DHT22;5379;51.034;7.006;2023-03-12T11:43:11;9.30;99.90
10662;DHT22;5379;51.034;7.006;2023-03-12T11:45:49;9.40;99.90
10662;DHT22;5379;51.034;7.006;2023-03-12T11:48:24;9.40;99.90
10662;DHT22;5379;51.034;7.006;2023-03-12T11:51:00;9.40;99.90
10662;DHT22;5379;51.034;7.006;2023-03-12T11:53:50;9.40;99.90
10662;DHT22;5379;51.034;7.006;2023-03-12T11:56:26;9.50;99.90
10662;DHT22;5379;51.034;7.006;2023-03-12T11:59:09;9.60;99.90
10662;DHT22;5379;51.034;7.006;2023-03-12T12:01:50;9.70;99.90
10662;DHT22;5379;51.034;7.006;2023-03-12T12:04:43;9.80;99.90
10662;DHT22;5379;51.034;7.006;2023-03-12T12:07:18;9.80;99.90
10662;DHT22;5379;51.034;7.006;2023-03-12T12:09:55;9.80;99.90
10662;DHT22;5379;51.034;7.006;2023-03-12T12:12:39;9.80;99.90
10662;DHT22;5379;51.034;7.006;2023-03-12T12:15:16;9.90;99.90
10662;DHT22;5379;51.034;7.006;2023-03-12T12:17:57;10.00;99.90
10662;DHT22;5379;51.034;7.006;2023-03-12T12:20:34;10.10;99.90
10662;DHT22;5379;51.034;7.006;2023-03-12T12:23:17;10.20;99.90
10662;DHT22;5379;51.034;7.006;2023-03-12T12:26:01;10.30;99.90
10662;DHT22;5379;51.034;7.006;2023-03-12T12:28:44;10.40;99.90
10662;DHT22;5379;51.034;7.006;2023-03-12T12:31:25;10.50;99.90
10662;DHT22;5379;51.034;7.006;2023-03-12T12:34:05;10.60;99.90
10662;DHT22;5379;51.034;7.006;2023-03-12T12:36:37;10.70;99.90
10662;DHT22;5379;51.034;7.006;2023-03-12T12:39:10;10.90;99.90
10662;DHT22;5379;51.034;7.006;2023-03-12T12:41:43;11.10;99.90
10662;DHT22;5379;51.034;7.006;2023-03-12T12:44:15;11.20;99.90
10662;DHT22;5379;51.034;7.006;2023-03-12T12:50:40;11.10;99.90
10662;DHT22;5379;51.034;7.006;2023-03-12T12:53:23;11.60;99.90
10662;DHT22;5379;51.034;7.006;2023-03-12T12:56:24;11.80;99.90
10662;DHT22;5379;51.034;7.006;2023-03-12T13:02:23;11.70;99.90
10662;DHT22;5379;51.034;7.006;2023-03-12T13:04:54;12.00;99.90
10662;DHT22;5379;51.034;7.006;2023-03-12T13:07:30;12.30;99.90
10662;DHT22;5379;51.034;7.006;2023-03-12T13:09:59;12.40;99.90
10662;DHT22;5379;51.034;7.006;2023-03-12T13:12:32;12.70;99.90
10662;DHT22;5379;51.034;7.006;2023-03-12T13:15:34;13.00;99.90
10662;DHT22;5379;51.034;7.006;2023-03-12T13:18:08;13.40;99.90
10662;DHT22;5379;51.034;7.006;2023-03-12T13:20:40;13.50;99.90
10662;DHT22;5379;51.034;7.006;2023-03-12T13:23:28;13.40;99.90
10662;DHT22;5379;51.034;7.006;2023-03-12T13:26:00;13.70;99.90
10662;DHT22;5379;51.034;7.006;2023-03-12T13:28:32;13.60;99.90
10662;DHT22;5379;51.034;7.006;2023-03-12T13:34:48;13.20;99.90
10662;DHT22;5379;51.034;7.006;2023-03-12T13:37:58;13.70;99.90
10662;DHT22;5379;51.034;7.006;2023-03-12T13:40:56;13.90;99.90
10662;DHT22;5379;51.034;7.006;2023-03-12T13:44:01;14.10;99.90
10662;DHT22;5379;51.034;7.006;2023-03-12T13:47:02;14.00;99.90
10662;DHT22;5379;51.034;7.006;2023-03-12T15:22:13;16.40;99.90
10662;DHT22;5379;51.034;7.006;2023-03-12T15:24:41;16.70;99.90
10662;DHT22;5379;51.034;7.006;2023-03-12T15:27:19;16.50;99.90
10662;DHT22;5379;51.034;7.006;2023-03-12T15:29:48;16.90;99.90
10662;DHT22;5379;51.034;7.006;2023-03-12T15:32:16;16.60;99.90
10662;DHT22;5379;51.034;7.006;2023-03-12T15:34:45;16.00;99.90
10662;DHT22;5379;51.034;7.006;2023-03-12T15:37:24;15.80;99.90
10662;DHT22;5379;51.034;7.006;2023-03-12T15:39:58;16.10;99.90
10662;DHT22;5379;51.034;7.006;2023-03-12T15:42:36;16.00;99.90
10662;DHT22;5379;51.034;7.006;2023-03-12T15:45:05;15.80;99.90
10662;DHT22;5379;51.034;7.006;2023-03-12T15:47:50;15.70;99.90
10662;DHT22;5379;51.034;7.006;2023-03-12T15:50:28;16.10;99.90
10662;DHT22;5379;51.034;7.006;2023-03-12T15:53:04;16.40;99.60
10662;DHT22;5379;51.034;7.006;2023-03-12T15:55:33;16.90;99.90
10662;DHT22;5379;51.034;7.006;2023-03-12T15:58:01;16.60;99.40
10662;DHT22;5379;51.034;7.006;2023-03-12T16:00:29;15.90;99.90
10662;DHT22;5379;51.034;7.006;2023-03-12T16:02:57;16.70;99.30
10662;DHT22;5379;51.034;7.006;2023-03-12T16:05:28;16.50;99.90
10662;DHT22;5379;51.034;7.006;2023-03-12T16:07:55;16.50;99.90
10662;DHT22;5379;51.034;7.006;2023-03-12T16:10:25;16.70;99.90
10662;DHT22;5379;51.034;7.006;2023-03-12T16:12:59;16.50;99.00
10662;DHT22;5379;51.034;7.006;2023-03-12T16:15:30;16.80;99.90
10662;DHT22;5379;51.034;7.006;2023-03-12T16:17:57;17.20;97.80
10662;DHT22;5379;51.034;7.006;2023-03-12T16:20:25;17.60;99.50
10662;DHT22;5379;51.034;7.006;2023-03-12T16:22:52;17.40;97.90
10662;DHT22;5379;51.034;7.006;2023-03-12T16:25:20;16.70;98.40
10662;DHT22;5379;51.034;7.006;2023-03-12T16:27:55;16.10;99.20
10662;DHT22;5379;51.034;7.006;2023-03-12T16:30:25;16.70;99.40
10662;DHT22;5379;51.034;7.006;2023-03-12T16:32:53;16.70;98.80
10662;DHT22;5379;51.034;7.006;2023-03-12T16:35:21;16.70;98.70
10662;DHT22;5379;51.034;7.006;2023-03-12T16:37:48;16.60;99.90
10662;DHT22;5379;51.034;7.006;2023-03-12T16:40:16;16.70;99.90
10662;DHT22;5379;51.034;7.006;2023-03-12T16:42:47;16.90;98.80
10662;DHT22;5379;51.034;7.006;2023-03-12T16:45:17;16.90;98.30
10662;DHT22;5379;51.034;7.006;2023-03-12T16:47:44;16.80;99.50
10662;DHT22;5379;51.034;7.006;2023-03-12T16:50:14;17.30;98.40
10662;DHT22;5379;51.034;7.006;2023-03-12T16:52:41;16.90;97.80
10662;DHT22;5379;51.034;7.006;2023-03-12T16:55:12;16.20;98.70
10662;DHT22;5379;51.034;7.006;2023-03-12T16:57:42;16.30;99.30
10662;DHT22;5379;51.034;7.006;2023-03-12T17:00:13;16.00;99.20
10662;DHT22;5379;51.034;7.006;2023-03-12T17:02:42;14.10;99.70
10662;DHT22;5379;51.034;7.006;2023-03-12T17:05:10;15.30;99.90
10662;DHT22;5379;51.034;7.006;2023-03-12T17:07:38;15.60;99.90
10662;DHT22;5379;51.034;7.006;2023-03-12T17:10:06;15.50;99.90
10662;DHT22;5379;51.034;7.006;2023-03-12T17:12:35;15.00;99.90
10662;DHT22;5379;51.034;7.006;2023-03-12T17:15:06;15.00;99.90
10662;DHT22;5379;51.034;7.006;2023-03-12T17:17:34;15.40;99.90
10662;DHT22;5379;51.034;7.006;2023-03-12T17:20:02;15.40;99.90
10662;DHT22;5379;51.034;7.006;2023-03-12T17:22:32;15.50;99.90
10662;DHT22;5379;51.034;7.006;2023-03-12T17:24:59;15.30;99.90
10662;DHT22;5379;51.034;7.006;2023-03-12T17:27:26;15.60;99.90
10662;DHT22;5379;51.034;7.006;2023-03-12T17:29:53;16.00;99.40
10662;DHT22;5379;51.034;7.006;2023-03-12T17:32:20;16.30;99.90
10662;DHT22;5379;51.034;7.006;2023-03-12T17:34:53;16.20;99.10
10662;DHT22;5379;51.034;7.006;2023-03-12T17:37:22;15.90;99.90
10662;DHT22;5379;51.034;7.006;2023-03-12T17:39:48;15.90;99.90
10662;DHT22;5379;51.034;7.006;2023-03-12T17:42:16;15.70;99.60
10662;DHT22;5379;51.034;7.006;2023-03-12T17:44:43;15.50;99.90
10662;DHT22;5379;51.034;7.006;2023-03-12T17:47:10;15.40;99.90
10662;DHT22;5379;51.034;7.006;2023-03-12T17:49:37;15.20;99.90
10662;DHT22;5379;51.034;7.006;2023-03-12T17:52:04;15.00;99.90
10662;DHT22;5379;51.034;7.006;2023-03-12T17:54:32;15.10;99.90
10662;DHT22;5379;51.034;7.006;2023-03-12T17:57:00;15.00;99.90
10662;DHT22;5379;51.034;7.006;2023-03-12T17:59:27;14.90;99.90
10662;DHT22;5379;51.034;7.006;2023-03-12T18:01:55;14.80;99.90
10662;DHT22;5379;51.034;7.006;2023-03-12T18:04:22;14.70;99.90
10662;DHT22;5379;51.034;7.006;2023-03-12T18:06:49;14.70;99.90
10662;DHT22;5379;51.034;7.006;2023-03-12T18:09:16;14.80;99.90
10662;DHT22;5379;51.034;7.006;2023-03-12T18:11:44;14.70;99.90
10662;DHT22;5379;51.034;7.006;2023-03-12T18:14:11;14.70;99.90
10662;DHT22;5379;51.034;7.006;2023-03-12T18:16:38;14.70;99.90
10662;DHT22;5379;51.034;7.006;2023-03-12T18:19:05;14.80;99.90
10662;DHT22;5379;51.034;7.006;2023-03-12T18:21:32;14.80;99.90
10662;DHT22;5379;51.034;7.006;2023-03-12T18:23:59;14.70;99.90
10662;DHT22;5379;51.034;7.006;2023-03-12T18:26:26;14.50;99.90
10662;DHT22;5379;51.034;7.006;2023-03-12T18:28:54;14.50;99.90
10662;DHT22;5379;51.034;7.006;2023-03-12T18:31:22;14.50;99.90
10662;DHT22;5379;51.034;7.006;2023-03-12T18:33:49;14.50;99.90
10662;DHT22;5379;51.034;7.006;2023-03-12T18:36:16;14.50;99.90
10662;DHT22;5379;51.034;7.006;2023-03-12T18:38:44;14.60;99.90
10662;DHT22;5379;51.034;7.006;2023-03-12T18:41:12;14.60;99.90
10662;DHT22;5379;51.034;7.006;2023-03-12T18:43:40;14.50;99.90
10662;DHT22;5379;51.034;7.006;2023-03-12T18:46:08;14.60;99.90
10662;DHT22;5379;51.034;7.006;2023-03-12T18:48:35;14.70;99.90
10662;DHT22;5379;51.034;7.006;2023-03-12T18:51:03;14.60;99.90
10662;DHT22;5379;51.034;7.006;2023-03-12T18:53:30;14.30;99.90
10662;DHT22;5379;51.034;7.006;2023-03-12T18:55:58;14.20;99.90
10662;DHT22;5379;51.034;7.006;2023-03-12T18:58:26;14.20;99.90
10662;DHT22;5379;51.034;7.006;2023-03-12T19:00:55;14.20;99.90
10662;DHT22;5379;51.034;7.006;2023-03-12T19:03:24;14.30;99.90
10662;DHT22;5379;51.034;7.006;2023-03-12T19:06:00;14.30;99.90
10662;DHT22;5379;51.034;7.006;2023-03-12T19:08:27;14.30;99.90
10662;DHT22;5379;51.034;7.006;2023-03-12T19:10:54;14.30;99.90
10662;DHT22;5379;51.034;7.006;2023-03-12T19:13:21;14.30;99.90
10662;DHT22;5379;51.034;7.006;2023-03-12T19:15:48;14.40;99.90
10662;DHT22;5379;51.034;7.006;2023-03-12T19:18:15;14.40;99.90
10662;DHT22;5379;51.034;7.006;2023-03-12T19:20:44;14.30;99.90
10662;DHT22;5379;51.034;7.006;2023-03-12T19:23:10;14.10;99.90
10662;DHT22;5379;51.034;7.006;2023-03-12T19:25:37;14.10;99.90
10662;DHT22;5379;51.034;7.006;2023-03-12T19:28:05;14.10;99.90
10662;DHT22;5379;51.034;7.006;2023-03-12T19:30:32;14.20;99.90
10662;DHT22;5379;51.034;7.006;2023-03-12T19:32:59;14.30;99.90
10662;DHT22;5379;51.034;7.006;2023-03-12T19:35:26;14.30;99.90
10662;DHT22;5379;51.034;7.006;2023-03-12T19:37:55;14.30;99.90
10662;DHT22;5379;51.034;7.006;2023-03-12T19:40:24;14.30;99.90
10662;DHT22;5379;51.034;7.006;2023-03-12T19:42:51;14.30;99.90
10662;DHT22;5379;51.034;7.006;2023-03-12T19:45:17;14.20;99.90
10662;DHT22;5379;51.034;7.006;2023-03-12T19:47:44;14.30;99.90
10662;DHT22;5379;51.034;7.006;2023-03-12T19:50:11;14.30;99.90
10662;DHT22;5379;51.034;7.006;2023-03-12T19:52:38;14.10;99.90
10662;DHT22;5379;51.034;7.006;2023-03-12T19:55:07;13.90;99.90
10662;DHT22;5379;51.034;7.006;2023-03-12T19:57:36;13.90;99.90
10662;DHT22;5379;51.034;7.006;2023-03-12T20:00:04;13.90;99.90
10662;DHT22;5379;51.034;7.006;2023-03-12T20:02:34;13.90;99.90
10662;DHT22;5379;51.034;7.006;2023-03-12T20:05:01;13.90;99.90
10662;DHT22;5379;51.034;7.006;2023-03-12T20:07:28;13.90;99.90
10662;DHT22;5379;51.034;7.006;2023-03-12T20:09:55;14.00;99.90
10662;DHT22;5379;51.034;7.006;2023-03-12T20:12:24;14.00;99.90
10662;DHT22;5379;51.034;7.006;2023-03-12T20:14:51;14.00;99.90
10662;DHT22;5379;51.034;7.006;2023-03-12T20:17:18;14.00;99.90
10662;DHT22;5379;51.034;7.006;2023-03-12T20:19:45;14.00;99.90
10662;DHT22;5379;51.034;7.006;2023-03-12T20:22:12;13.80;99.90
10662;DHT22;5379;51.034;7.006;2023-03-12T20:24:39;13.70;99.90
10662;DHT22;5379;51.034;7.006;2023-03-12T20:27:06;13.70;99.90
10662;DHT22;5379;51.034;7.006;2023-03-12T20:29:35;13.80;99.90
10662;DHT22;5379;51.034;7.006;2023-03-12T20:32:02;13.70;99.90
10662;DHT22;5379;51.034;7.006;2023-03-12T20:34:28;13.80;99.90
10662;DHT22;5379;51.034;7.006;2023-03-12T20:36:57;13.80;99.90
10662;DHT22;5379;51.034;7.006;2023-03-12T20:39:24;13.80;99.90
10662;DHT22;5379;51.034;7.006;2023-03-12T20:41:50;13.80;99.90
10662;DHT22;5379;51.034;7.006;2023-03-12T20:44:17;13.80;99.90
10662;DHT22;5379;51.034;7.006;2023-03-12T20:46:46;13.80;99.90
10662;DHT22;5379;51.034;7.006;2023-03-12T20:49:13;13.70;99.90
10662;DHT22;5379;51.034;7.006;2023-03-12T20:51:40;13.60;99.90
10662;DHT22;5379;51.034;7.006;2023-03-12T20:54:09;13.50;99.90
10662;DHT22;5379;51.034;7.006;2023-03-12T20:56:36;13.50;99.90
10662;DHT22;5379;51.034;7.006;2023-03-12T20:59:07;13.60;99.90
10662;DHT22;5379;51.034;7.006;2023-03-12T21:01:34;13.60;99.90
10662;DHT22;5379;51.034;7.006;2023-03-12T21:04:03;13.60;99.90
10662;DHT22;5379;51.034;7.006;2023-03-12T21:06:30;13.50;99.90
10662;DHT22;5379;51.034;7.006;2023-03-12T21:08:57;13.50;99.90
10662;DHT22;5379;51.034;7.006;2023-03-12T21:11:24;13.50;99.90
10662;DHT22;5379;51.034;7.006;2023-03-12T21:13:52;13.50;99.90
10662;DHT22;5379;51.034;7.006;2023-03-12T21:16:19;13.40;99.90
10662;DHT22;5379;51.034;7.006;2023-03-12T21:18:46;13.30;99.90
10662;DHT22;5379;51.034;7.006;2023-03-12T21:21:14;13.30;99.90
10662;DHT22;5379;51.034;7.006;2023-03-12T21:23:41;13.30;99.90
10662;DHT22;5379;51.034;7.006;2023-03-12T21:26:10;13.40;99.90
10662;DHT22;5379;51.034;7.006;2023-03-12T21:28:37;13.40;99.90
10662;DHT22;5379;51.034;7.006;2023-03-12T21:31:05;13.50;99.90
10662;DHT22;5379;51.034;7.006;2023-03-12T21:33:32;13.50;99.90
10662;DHT22;5379;51.034;7.006;2023-03-12T21:35:59;13.50;99.90
10662;DHT22;5379;51.034;7.006;2023-03-12T21:38:30;13.50;99.90
10662;DHT22;5379;51.034;7.006;2023-03-12T21:40:56;13.50;99.90
10662;DHT22;5379;51.034;7.006;2023-03-12T21:43:24;13.30;99.90
10662;DHT22;5379;51.034;7.006;2023-03-12T21:45:54;13.20;99.90
10662;DHT22;5379;51.034;7.006;2023-03-12T21:48:21;13.20;99.90
10662;DHT22;5379;51.034;7.006;2023-03-12T21:50:48;13.30;99.90
10662;DHT22;5379;51.034;7.006;2023-03-12T21:53:15;13.30;99.90
10662;DHT22;5379;51.034;7.006;2023-03-12T21:55:53;13.40;99.90
10662;DHT22;5379;51.034;7.006;2023-03-12T21:58:20;13.50;99.90
10662;DHT22;5379;51.034;7.006;2023-03-12T22:00:47;13.50;99.90
10662;DHT22;5379;51.034;7.006;2023-03-12T22:03:14;13.60;99.90
10662;DHT22;5379;51.034;7.006;2023-03-12T22:05:40;13.60;99.90
10662;DHT22;5379;51.034;7.006;2023-03-12T22:08:07;13.60;99.90
10662;DHT22;5379;51.034;7.006;2023-03-12T22:10:34;13.60;99.90
10662;DHT22;5379;51.034;7.006;2023-03-12T22:13:02;13.60;99.90
10662;DHT22;5379;51.034;7.006;2023-03-12T22:15:29;13.60;99.90
10662;DHT22;5379;51.034;7.006;2023-03-12T22:17:56;13.60;99.90
10662;DHT22;5379;51.034;7.006;2023-03-12T22:20:23;13.60;99.90
10662;DHT22;5379;51.034;7.006;2023-03-12T22:22:50;13.70;99.90
10662;DHT22;5379;51.034;7.006;2023-03-12T22:25:17;13.70;99.90